Minerva Xanthe — SVBN6 — position and weather

sailwx.info

Track history (hours):
 
Tides and Currents Weather Stations Pressure Air Temp Water Temp Dewpoint Dewpoint Depression Visibility Wind Speed Wind Dir Waves Ship Positions

Minerva Xanthe

Last reported at 2018-Jun-23 00:29 UTC. Time now 2018-Jun-23 00:52 UTC.
Position N 35°54' E 014°52'.

Length 180 m; draft 8.5 m.

Type: Ship. MMSI: 241192000.

Date/timePositionNaut miles runAvg speedWind from/ knotsBaromVisibWave heightAir tempDewpointWater temp
2018-Jun-23 00:29N 35°54' E 014°52'0 0.0
2018-Jun-22 21:44N 35°54' E 014°52'0 0.0
2018-Jun-22 21:23N 35°54' E 014°52'0 0.0
2018-Jun-22 20:47N 35°54' E 014°52'0 0.0
2018-Jun-22 20:26N 35°54' E 014°52'0 0.0
2018-Jun-22 19:44N 35°54' E 014°52'0 0.1
2018-Jun-22 19:29N 35°54' E 014°52'0 0.0
2018-Jun-22 18:59N 35°54' E 014°52'0 0.0
2018-Jun-22 18:29N 35°54' E 014°52'0 0.0
2018-Jun-22 17:59N 35°54' E 014°52'0 0.0
2018-Jun-22 17:29N 35°54' E 014°52'0 0.0
2018-Jun-22 16:59N 35°54' E 014°52'0 0.0
2018-Jun-22 16:26N 35°54' E 014°52'0 0.1
2018-Jun-22 15:56N 35°54' E 014°51'0 0.0
2018-Jun-22 14:20N 35°54' E 014°51'0 0.0
2018-Jun-22 13:56N 35°54' E 014°51'0 0.0
2018-Jun-22 11:14N 35°54' E 014°51'0 0.0
2018-Jun-22 10:59N 35°54' E 014°51'0 0.0
2018-Jun-22 09:20N 35°54' E 014°51'0 0.0
2018-Jun-22 08:50N 35°54' E 014°51'0 0.0
2018-Jun-22 08:29N 35°54' E 014°51'0 0.0
2018-Jun-22 02:50N 35°54' E 014°52'0 0.0
2018-Jun-21 23:32N 35°54' E 014°52'0 0.0
2018-Jun-21 23:29N 35°54' E 014°52'0 0.0
2018-Jun-21 22:59N 35°54' E 014°52'0 0.0
2018-Jun-21 11:26N 35°54' E 014°51'0 0.0
2018-Jun-21 09:26N 35°54' E 014°51'0 0.0
2018-Jun-21 06:40N 35°54' E 014°51'0 0.0
2018-Jun-21 06:19N 35°54' E 014°51'0 0.1
2018-Jun-21 06:00N 35°54' E 014°51'0 0.2
2018-Jun-21 05:14N 35°54' E 014°51'1 4.6
2018-Jun-21 05:00N 35°55' E 014°50'5 0.4
2018-Jun-20 15:31N 35°59' E 014°48'0 0.0
2018-Jun-20 15:30N 35°59' E 014°48'2 0.1
2018-Jun-19 17:07N 35°58' E 014°47'1 6.9
2018-Jun-19 17:00N 35°58' E 014°46'2 0.8
2018-Jun-19 14:45N 35°60' E 014°48'9 0.4
2018-Jun-18 15:34N 35°53' E 014°54'0 0.0
2018-Jun-18 15:28N 35°53' E 014°54'0 0.0
2018-Jun-18 14:49N 35°53' E 014°54'0 0.0
2018-Jun-18 14:28N 35°53' E 014°54'0 0.0
2018-Jun-18 13:58N 35°53' E 014°54'0 0.0
2018-Jun-18 13:28N 35°53' E 014°54'0 0.0
2018-Jun-18 12:58N 35°53' E 014°54'0 0.0
2018-Jun-18 12:28N 35°53' E 014°54'0 0.0
2018-Jun-18 11:55N 35°53' E 014°54'0 0.0
2018-Jun-18 11:25N 35°53' E 014°54'0 0.0
2018-Jun-18 10:52N 35°53' E 014°54'0 0.1
2018-Jun-18 10:25N 35°53' E 014°54'0 0.0
2018-Jun-18 09:43N 35°53' E 014°54'0 0.1
2018-Jun-18 09:28N 35°53' E 014°54'0 0.0
2018-Jun-18 08:19N 35°53' E 014°54'  
2018-Jun-15 13:23N 36°02' E 014°39'4 9.4
2018-Jun-15 13:01N 36°02' E 014°34'8 9.8
2018-Jun-15 12:12N 36°06' E 014°26'2 9.9
2018-Jun-15 12:00N 36°07' E 014°24'510.0
2018-Jun-15 11:30N 36°09' E 014°18'5 9.8
2018-Jun-15 11:00N 36°11' E 014°13'6 9.6
2018-Jun-15 10:25N 36°14' E 014°07'6 9.9
2018-Jun-15 09:49N 36°16' E 013°60'310.0
2018-Jun-15 09:30N 36°18' E 013°56'610.0
2018-Jun-15 08:56N 36°20' E 013°50'9 9.8
2018-Jun-15 07:58N 36°24' E 013°40'5 9.0
2018-Jun-15 07:27N 36°26' E 013°34'1 1.4
2018-Jun-15 06:52N 36°26' E 013°33'4 8.2
2018-Jun-15 06:24N 36°28' E 013°29'  
2018-Jun-13 00:41N 37°15' E 002°57'2 9.4
2018-Jun-13 00:30N 37°15' E 002°55'  
Track history (hours):
 
Tides and Currents Weather Stations Pressure Air Temp Water Temp Dewpoint Dewpoint Depression Visibility Wind Speed Wind Dir Waves Ship Positions

Minerva Xanthe

Last reported at 2018-Jun-23 00:29 UTC. Time now 2018-Jun-23 00:52 UTC.
Position N 35°54' E 014°52'.

Length 180 m; draft 8.5 m.

Type: Ship. MMSI: 241192000.

Date/timePositionNaut miles runAvg speedWind from/ knotsBaromVisibWave heightAir tempDewpointWater temp
2018-Jun-23 00:29N 35°54' E 014°52'0 0.0
2018-Jun-22 21:44N 35°54' E 014°52'0 0.0
2018-Jun-22 21:23N 35°54' E 014°52'0 0.0
2018-Jun-22 20:47N 35°54' E 014°52'0 0.0
2018-Jun-22 20:26N 35°54' E 014°52'0 0.0
2018-Jun-22 19:44N 35°54' E 014°52'0 0.1
2018-Jun-22 19:29N 35°54' E 014°52'0 0.0
2018-Jun-22 18:59N 35°54' E 014°52'0 0.0
2018-Jun-22 18:29N 35°54' E 014°52'0 0.0
2018-Jun-22 17:59N 35°54' E 014°52'0 0.0
2018-Jun-22 17:29N 35°54' E 014°52'0 0.0
2018-Jun-22 16:59N 35°54' E 014°52'0 0.0
2018-Jun-22 16:26N 35°54' E 014°52'0 0.1
2018-Jun-22 15:56N 35°54' E 014°51'0 0.0
2018-Jun-22 14:20N 35°54' E 014°51'0 0.0
2018-Jun-22 13:56N 35°54' E 014°51'0 0.0
2018-Jun-22 11:14N 35°54' E 014°51'0 0.0
2018-Jun-22 10:59N 35°54' E 014°51'0 0.0
2018-Jun-22 09:20N 35°54' E 014°51'0 0.0
2018-Jun-22 08:50N 35°54' E 014°51'0 0.0
2018-Jun-22 08:29N 35°54' E 014°51'0 0.0
2018-Jun-22 02:50N 35°54' E 014°52'0 0.0
2018-Jun-21 23:32N 35°54' E 014°52'0 0.0
2018-Jun-21 23:29N 35°54' E 014°52'0 0.0
2018-Jun-21 22:59N 35°54' E 014°52'0 0.0
2018-Jun-21 11:26N 35°54' E 014°51'0 0.0
2018-Jun-21 09:26N 35°54' E 014°51'0 0.0
2018-Jun-21 06:40N 35°54' E 014°51'0 0.0
2018-Jun-21 06:19N 35°54' E 014°51'0 0.1
2018-Jun-21 06:00N 35°54' E 014°51'0 0.2
2018-Jun-21 05:14N 35°54' E 014°51'1 4.6
2018-Jun-21 05:00N 35°55' E 014°50'5 0.4
2018-Jun-20 15:31N 35°59' E 014°48'0 0.0
2018-Jun-20 15:30N 35°59' E 014°48'2 0.1
2018-Jun-19 17:07N 35°58' E 014°47'1 6.9
2018-Jun-19 17:00N 35°58' E 014°46'2 0.8
2018-Jun-19 14:45N 35°60' E 014°48'9 0.4
2018-Jun-18 15:34N 35°53' E 014°54'0 0.0
2018-Jun-18 15:28N 35°53' E 014°54'0 0.0
2018-Jun-18 14:49N 35°53' E 014°54'0 0.0
2018-Jun-18 14:28N 35°53' E 014°54'0 0.0
2018-Jun-18 13:58N 35°53' E 014°54'0 0.0
2018-Jun-18 13:28N 35°53' E 014°54'0 0.0
2018-Jun-18 12:58N 35°53' E 014°54'0 0.0
2018-Jun-18 12:28N 35°53' E 014°54'0 0.0
2018-Jun-18 11:55N 35°53' E 014°54'0 0.0
2018-Jun-18 11:25N 35°53' E 014°54'0 0.0
2018-Jun-18 10:52N 35°53' E 014°54'0 0.1
2018-Jun-18 10:25N 35°53' E 014°54'0 0.0
2018-Jun-18 09:43N 35°53' E 014°54'0 0.1
2018-Jun-18 09:28N 35°53' E 014°54'0 0.0
2018-Jun-18 08:19N 35°53' E 014°54'  
2018-Jun-15 13:23N 36°02' E 014°39'4 9.4
2018-Jun-15 13:01N 36°02' E 014°34'8 9.8
2018-Jun-15 12:12N 36°06' E 014°26'2 9.9
2018-Jun-15 12:00N 36°07' E 014°24'510.0
2018-Jun-15 11:30N 36°09' E 014°18'5 9.8
2018-Jun-15 11:00N 36°11' E 014°13'6 9.6
2018-Jun-15 10:25N 36°14' E 014°07'6 9.9
2018-Jun-15 09:49N 36°16' E 013°60'310.0
2018-Jun-15 09:30N 36°18' E 013°56'610.0
2018-Jun-15 08:56N 36°20' E 013°50'9 9.8
2018-Jun-15 07:58N 36°24' E 013°40'5 9.0
2018-Jun-15 07:27N 36°26' E 013°34'1 1.4
2018-Jun-15 06:52N 36°26' E 013°33'4 8.2
2018-Jun-15 06:24N 36°28' E 013°29'  
2018-Jun-13 00:41N 37°15' E 002°57'2 9.4
2018-Jun-13 00:30N 37°15' E 002°55'  

Dump ship's entire track history